Time;durP1;ratioP1;P1;durP2;ratioP2;P2;SDS_P1;SDS_P2;PMS_P1;PMS_P2;Temp;Humidity;BMP_temperature;BMP_pressure;BME280_temperature;BME280_humidity;BME280_pressure;Samples;Min_cycle;Max_cycle;Signal;HPM_P1;HPM_P2
2021/06/22 00:02:19;;;;;;;11.65;9.27;;;;;;;;;;4261612;33;20440;-68
2021/06/22 00:04:45;;;;;;;15.10;10.65;;;;;;;;;;4261460;33;20116;-68
2021/06/22 00:07:14;;;;;;;11.43;9.98;;;;;;;;;;4261488;33;20132;-68
2021/06/22 00:09:41;;;;;;;19.27;9.95;;;;;;;;;;4261516;33;20104;-68
2021/06/22 00:12:08;;;;;;;10.27;9.23;;;;;;;;;;4261563;33;20136;-68
2021/06/22 00:14:34;;;;;;;11.10;10.00;;;;;;;;;;4261399;33;20097;-68
2021/06/22 00:45:27;;;;;;;10.25;9.23;;;;;;;;;;4246489;33;20136;-65
2021/06/22 00:47:53;;;;;;;12.77;9.27;;;;;;;;;;4246241;33;20124;-68
2021/06/22 00:50:19;;;;;;;14.57;10.30;;;;;;;;;;4247577;33;20109;-66
2021/06/22 00:52:45;;;;;;;14.75;10.00;;;;;;;;;;4247202;33;20203;-67
2021/06/22 00:55:11;;;;;;;10.40;9.18;;;;;;;;;;4247366;33;20117;-67
2021/06/22 00:57:41;;;;;;;15.27;9.55;;;;;;;;;;4247530;33;20100;-66
2021/06/22 01:00:08;;;;;;;10.30;9.20;;;;;;;;;;4247467;33;20124;-66
2021/06/22 01:02:34;;;;;;;11.12;9.02;;;;;;;;;;4247365;33;20539;-67
2021/06/22 01:05:00;;;;;;;10.80;9.68;;;;;;;;;;4247126;33;20863;-68
2021/06/22 01:07:26;;;;;;;12.80;9.15;;;;;;;;;;4247266;33;20659;-66
2021/06/22 01:09:52;;;;;;;10.38;9.00;;;;;;;;;;4246806;33;20089;-67
2021/06/22 01:12:18;;;;;;;13.43;10.85;;;;;;;;;;4227169;33;20128;-68
2021/06/22 01:14:45;;;;;;;12.30;9.40;;;;;;;;;;4247155;33;20192;-66
2021/06/22 01:17:11;;;;;;;12.98;9.27;;;;;;;;;;4247162;33;20536;-68
2021/06/22 01:19:37;;;;;;;13.88;9.38;;;;;;;;;;4247519;33;20151;-68
2021/06/22 01:22:06;;;;;;;11.55;9.75;;;;;;;;;;4234167;33;20116;-68
2021/06/22 01:24:33;;;;;;;15.75;10.38;;;;;;;;;;4233876;33;20119;-66
2021/06/22 01:26:59;;;;;;;14.57;10.52;;;;;;;;;;4246928;33;20112;-67
2021/06/22 01:29:26;;;;;;;12.10;10.05;;;;;;;;;;4233896;33;20112;-67
2021/06/22 01:31:52;;;;;;;16.25;11.25;;;;;;;;;;4247117;33;20108;-68
2021/06/22 01:34:25;;;;;;;13.95;10.77;;;;;;;;;;4245973;33;20195;-68
2021/06/22 01:36:51;;;;;;;15.77;10.35;;;;;;;;;;4247005;33;20093;-68
2021/06/22 01:39:17;;;;;;;11.68;10.30;;;;;;;;;;4247086;33;20120;-68
2021/06/22 01:41:43;;;;;;;11.40;10.00;;;;;;;;;;4234185;33;20132;-66
2021/06/22 01:44:09;;;;;;;19.02;11.05;;;;;;;;;;4245139;33;20150;-68
2021/06/22 01:46:35;;;;;;;19.58;10.55;;;;;;;;;;4261274;33;20151;-68
2021/06/22 01:49:01;;;;;;;16.45;11.27;;;;;;;;;;4261219;33;20138;-67
2021/06/22 01:51:27;;;;;;;14.82;11.75;;;;;;;;;;4261366;33;20100;-68
2021/06/22 01:53:57;;;;;;;11.85;10.45;;;;;;;;;;4248030;33;20128;-67
2021/06/22 01:56:24;;;;;;;24.70;12.07;;;;;;;;;;4261020;33;20120;-68
2021/06/22 01:58:50;;;;;;;25.55;12.93;;;;;;;;;;4236645;33;20455;-68
2021/06/22 02:01:16;;;;;;;28.40;13.85;;;;;;;;;;4261386;33;20123;-67
2021/06/22 02:03:42;;;;;;;28.70;13.62;;;;;;;;;;4261113;33;20100;-68
2021/06/22 02:06:09;;;;;;;32.17;14.80;;;;;;;;;;4260892;33;20216;-67
2021/06/22 02:08:34;;;;;;;21.85;12.32;;;;;;;;;;4247803;33;20162;-67
2021/06/22 02:11:00;;;;;;;26.83;14.25;;;;;;;;;;4260961;33;20139;-66
2021/06/22 02:13:28;;;;;;;24.15;13.65;;;;;;;;;;4260974;33;20222;-64
2021/06/22 02:15:54;;;;;;;23.45;12.40;;;;;;;;;;4260668;33;20508;-66
2021/06/22 02:18:20;;;;;;;23.48;13.32;;;;;;;;;;4260610;33;20101;-62
2021/06/22 02:20:46;;;;;;;24.17;13.65;;;;;;;;;;4246971;33;20107;-66
2021/06/22 02:23:12;;;;;;;23.40;12.15;;;;;;;;;;4260642;33;20518;-66
2021/06/22 02:25:38;;;;;;;26.48;14.00;;;;;;;;;;4260704;33;20573;-65
2021/06/22 02:28:12;;;;;;;22.15;13.00;;;;;;;;;;4260339;33;20462;-67
2021/06/22 02:30:58;;;;;;;22.23;13.27;;;;;;;;;;4258409;33;20092;-67
2021/06/22 02:33:32;;;;;;;29.95;14.77;;;;;;;;;;4260351;33;20096;-67
2021/06/22 02:35:58;;;;;;;27.62;14.23;;;;;;;;;;4260492;33;20135;-67
2021/06/22 02:38:24;;;;;;;22.92;14.02;;;;;;;;;;4247441;33;20519;-67
2021/06/22 02:40:50;;;;;;;35.70;13.90;;;;;;;;;;4260462;33;20135;-66
2021/06/22 02:43:16;;;;;;;19.15;13.90;;;;;;;;;;4258801;33;20113;-65
2021/06/22 02:45:42;;;;;;;27.35;14.77;;;;;;;;;;4247401;33;20104;-66
2021/06/22 02:48:11;;;;;;;26.42;14.45;;;;;;;;;;4247370;33;20147;-64
2021/06/22 02:50:39;;;;;;;26.80;13.38;;;;;;;;;;4247773;33;20124;-66
2021/06/22 02:53:06;;;;;;;19.65;12.07;;;;;;;;;;4260199;33;20124;-66
2021/06/22 02:55:31;;;;;;;18.15;14.32;;;;;;;;;;4260627;33;20198;-65
2021/06/22 02:57:58;;;;;;;21.25;14.07;;;;;;;;;;4260390;33;20323;-65
2021/06/22 03:00:26;;;;;;;19.90;13.50;;;;;;;;;;4260221;33;20507;-66
2021/06/22 03:02:52;;;;;;;21.00;13.20;;;;;;;;;;4259979;33;20118;-66
2021/06/22 03:05:18;;;;;;;25.55;13.10;;;;;;;;;;4259729;33;20526;-66
2021/06/22 03:07:44;;;;;;;20.17;12.48;;;;;;;;;;4259907;33;20108;-66
2021/06/22 03:10:11;;;;;;;17.27;12.63;;;;;;;;;;4260168;33;20615;-68
2021/06/22 03:12:37;;;;;;;20.25;13.10;;;;;;;;;;4260362;33;20097;-66
2021/06/22 03:15:05;;;;;;;18.83;12.30;;;;;;;;;;4257983;33;20132;-66
2021/06/22 03:17:30;;;;;;;17.70;12.30;;;;;;;;;;4258117;33;20191;-66
2021/06/22 03:19:56;;;;;;;21.12;12.48;;;;;;;;;;4258144;33;20135;-65
2021/06/22 03:22:24;;;;;;;23.52;12.48;;;;;;;;;;4258690;33;20089;-66
2021/06/22 03:24:50;;;;;;;20.15;12.40;;;;;;;;;;4257607;33;20111;-66
2021/06/22 03:27:16;;;;;;;20.30;12.07;;;;;;;;;;4257817;33;20198;-64
2021/06/22 03:29:42;;;;;;;17.52;11.10;;;;;;;;;;4257606;33;20547;-66
2021/06/22 03:32:08;;;;;;;18.73;13.10;;;;;;;;;;4260249;33;20183;-66
2021/06/22 03:34:36;;;;;;;17.25;11.75;;;;;;;;;;4262084;33;20128;-66
2021/06/22 03:37:03;;;;;;;16.75;11.63;;;;;;;;;;4249415;33;20201;-66
2021/06/22 03:39:29;;;;;;;24.52;12.50;;;;;;;;;;4249181;33;20187;-65
2021/06/22 03:41:55;;;;;;;21.98;13.05;;;;;;;;;;4248839;33;20204;-65
2021/06/22 03:44:21;;;;;;;21.95;12.45;;;;;;;;;;4236998;33;20104;-66
2021/06/22 03:46:47;;;;;;;22.55;12.63;;;;;;;;;;4249177;33;20123;-68
2021/06/22 03:49:13;;;;;;;18.83;13.38;;;;;;;;;;4262087;33;20120;-67
2021/06/22 03:51:38;;;;;;;23.48;13.38;;;;;;;;;;4262109;33;20235;-66
2021/06/22 03:54:04;;;;;;;20.70;10.18;;;;;;;;;;4261983;33;20128;-66
2021/06/22 03:56:31;;;;;;;14.18;9.55;;;;;;;;;;4262122;33;20101;-68
2021/06/22 03:58:56;;;;;;;17.77;9.60;;;;;;;;;;4261723;33;20104;-66
2021/06/22 04:01:22;;;;;;;19.45;9.65;;;;;;;;;;4248866;33;20114;-66
2021/06/22 04:03:48;;;;;;;20.77;10.05;;;;;;;;;;4248605;33;20577;-68
2021/06/22 04:06:15;;;;;;;20.65;9.80;;;;;;;;;;4261927;33;20444;-68
2021/06/22 04:08:41;;;;;;;15.23;9.80;;;;;;;;;;4261765;33;20110;-65
2021/06/22 04:11:07;;;;;;;20.55;10.52;;;;;;;;;;4261933;33;20601;-67
2021/06/22 04:13:34;;;;;;;19.98;11.02;;;;;;;;;;4249096;33;20108;-67
2021/06/22 04:16:00;;;;;;;15.70;10.30;;;;;;;;;;4237241;33;20823;-67
2021/06/22 04:18:25;;;;;;;18.12;10.05;;;;;;;;;;4249162;33;20516;-68
2021/06/22 04:20:52;;;;;;;16.50;9.85;;;;;;;;;;4261800;33;20416;-66
2021/06/22 04:23:17;;;;;;;21.20;10.75;;;;;;;;;;4261396;33;20176;-64
2021/06/22 04:25:44;;;;;;;15.23;9.98;;;;;;;;;;4261691;33;20127;-64
2021/06/22 04:28:09;;;;;;;15.57;10.35;;;;;;;;;;4261530;33;20443;-67
2021/06/22 04:30:37;;;;;;;21.37;10.05;;;;;;;;;;4261709;33;20127;-65
2021/06/22 04:33:03;;;;;;;17.87;10.10;;;;;;;;;;4261530;33;20208;-66
2021/06/22 04:35:30;;;;;;;15.95;9.80;;;;;;;;;;4261714;33;20144;-66
2021/06/22 04:37:57;;;;;;;18.58;10.23;;;;;;;;;;4260209;33;20531;-64
2021/06/22 04:40:23;;;;;;;15.60;11.05;;;;;;;;;;4261619;33;20120;-68
2021/06/22 04:42:49;;;;;;;18.50;11.02;;;;;;;;;;4261423;33;20093;-64
2021/06/22 04:45:15;;;;;;;19.15;10.50;;;;;;;;;;4261494;33;20105;-68
2021/06/22 04:47:41;;;;;;;16.87;10.50;;;;;;;;;;4261448;33;20511;-67
2021/06/22 04:50:07;;;;;;;16.42;10.63;;;;;;;;;;4261537;33;20143;-66
2021/06/22 04:52:33;;;;;;;14.25;9.70;;;;;;;;;;4261751;33;20451;-65
2021/06/22 04:54:59;;;;;;;13.52;10.23;;;;;;;;;;4260050;33;20109;-66
2021/06/22 04:57:25;;;;;;;15.40;10.18;;;;;;;;;;4261513;33;20127;-66
2021/06/22 04:59:51;;;;;;;15.13;10.80;;;;;;;;;;4261379;33;20128;-68
2021/06/22 05:02:17;;;;;;;26.23;10.75;;;;;;;;;;4248353;33;20188;-66
2021/06/22 05:04:43;;;;;;;11.23;8.10;;;;;;;;;;4245873;33;20204;-67
2021/06/22 05:07:09;;;;;;;11.85;8.77;;;;;;;;;;4261258;33;20498;-66
2021/06/22 05:09:35;;;;;;;10.68;8.93;;;;;;;;;;4261366;33;20184;-66
2021/06/22 05:12:04;;;;;;;18.42;8.38;;;;;;;;;;4261597;33;20466;-65
2021/06/22 05:14:30;;;;;;;14.30;9.70;;;;;;;;;;4246002;33;20189;-66
2021/06/22 05:16:56;;;;;;;17.60;8.73;;;;;;;;;;4247306;33;20534;-66
2021/06/22 05:19:22;;;;;;;12.27;7.60;;;;;;;;;;4247491;33;20239;-67
2021/06/22 05:21:48;;;;;;;9.60;7.35;;;;;;;;;;4254143;33;20120;-65
2021/06/22 05:24:15;;;;;;;14.48;6.90;;;;;;;;;;4261430;33;20132;-65
2021/06/22 05:26:41;;;;;;;11.77;6.43;;;;;;;;;;4261292;33;20466;-67
2021/06/22 05:29:07;;;;;;;12.35;6.87;;;;;;;;;;4261137;33;20128;-68
2021/06/22 05:31:34;;;;;;;7.10;5.80;;;;;;;;;;4261308;33;20204;-68
2021/06/22 05:34:00;;;;;;;8.32;5.62;;;;;;;;;;4261213;33;20376;-68
2021/06/22 05:36:26;;;;;;;11.30;5.87;;;;;;;;;;4261508;33;20208;-67
2021/06/22 05:38:52;;;;;;;14.32;5.32;;;;;;;;;;4261268;33;20120;-66
2021/06/22 05:41:18;;;;;;;6.95;5.80;;;;;;;;;;4261179;33;20116;-68
2021/06/22 05:43:44;;;;;;;14.48;5.82;;;;;;;;;;4260977;33;20116;-67
2021/06/22 05:46:10;;;;;;;14.50;5.65;;;;;;;;;;4261351;33;20191;-66
2021/06/22 05:48:36;;;;;;;13.68;5.93;;;;;;;;;;4261240;33;20136;-67
2021/06/22 05:51:02;;;;;;;7.78;5.05;;;;;;;;;;4261457;33;20136;-68
2021/06/22 05:53:27;;;;;;;8.85;5.10;;;;;;;;;;4261076;33;20304;-67
2021/06/22 05:55:53;;;;;;;7.95;5.10;;;;;;;;;;4260211;33;20178;-66
2021/06/22 05:58:19;;;;;;;6.78;5.30;;;;;;;;;;4248120;33;20111;-68
2021/06/22 06:00:45;;;;;;;7.37;5.22;;;;;;;;;;4260968;33;20108;-68
2021/06/22 06:03:11;;;;;;;8.10;5.80;;;;;;;;;;4261005;33;20135;-65
2021/06/22 06:05:38;;;;;;;7.55;4.72;;;;;;;;;;4248235;33;20080;-65
2021/06/22 06:08:04;;;;;;;7.55;5.03;;;;;;;;;;4259432;33;20124;-66
2021/06/22 06:10:32;;;;;;;5.12;3.53;;;;;;;;;;4260933;33;20536;-68
2021/06/22 06:12:57;;;;;;;9.30;4.43;;;;;;;;;;4260741;33;20124;-67
2021/06/22 06:15:23;;;;;;;6.37;4.47;;;;;;;;;;4260986;33;20128;-67
2021/06/22 06:17:49;;;;;;;7.90;4.60;;;;;;;;;;4259351;33;20124;-63
2021/06/22 06:20:15;;;;;;;10.30;4.85;;;;;;;;;;4260825;33;20108;-65
2021/06/22 06:22:42;;;;;;;8.40;4.90;;;;;;;;;;4260702;33;20125;-64
2021/06/22 06:25:09;;;;;;;5.47;4.22;;;;;;;;;;4260657;33;20250;-67
2021/06/22 06:27:48;;;;;;;8.32;4.70;;;;;;;;;;4260962;33;20110;-65
2021/06/22 06:30:17;;;;;;;4.05;3.62;;;;;;;;;;4259605;33;20128;-67
2021/06/22 06:32:44;;;;;;;4.90;4.05;;;;;;;;;;4259605;33;20096;-67
2021/06/22 06:35:10;;;;;;;5.70;4.87;;;;;;;;;;4260710;33;20096;-65
2021/06/22 06:37:36;;;;;;;6.37;5.15;;;;;;;;;;4260970;33;20405;-67
2021/06/22 06:40:03;;;;;;;5.32;3.25;;;;;;;;;;4260254;33;20096;-66
2021/06/22 06:42:29;;;;;;;4.00;3.67;;;;;;;;;;4260742;33;20120;-66
2021/06/22 06:44:55;;;;;;;6.70;3.80;;;;;;;;;;4260333;33;20128;-65
2021/06/22 06:47:22;;;;;;;5.35;4.03;;;;;;;;;;4260542;33;20120;-67
2021/06/22 06:49:48;;;;;;;3.55;3.25;;;;;;;;;;4260530;33;20645;-67
2021/06/22 06:52:14;;;;;;;6.45;3.45;;;;;;;;;;4260780;33;20100;-65
2021/06/22 06:54:40;;;;;;;6.78;3.95;;;;;;;;;;4260410;33;20215;-64
2021/06/22 06:57:06;;;;;;;4.20;3.80;;;;;;;;;;4260449;33;20142;-64
2021/06/22 06:59:32;;;;;;;4.22;3.78;;;;;;;;;;4260551;33;20200;-67
2021/06/22 07:01:58;;;;;;;4.80;3.85;;;;;;;;;;4260444;33;20531;-67
2021/06/22 07:04:24;;;;;;;4.00;3.60;;;;;;;;;;4247200;33;20478;-67
2021/06/22 07:06:50;;;;;;;4.45;3.87;;;;;;;;;;4261261;33;20142;-67
2021/06/22 07:09:16;;;;;;;7.12;4.03;;;;;;;;;;4262675;33;20143;-66
2021/06/22 07:11:42;;;;;;;3.90;3.37;;;;;;;;;;4262567;33;20219;-67
2021/06/22 07:14:08;;;;;;;6.43;4.62;;;;;;;;;;4262441;33;20146;-67
2021/06/22 07:16:34;;;;;;;5.05;4.18;;;;;;;;;;4262503;33;20140;-66
2021/06/22 07:19:02;;;;;;;4.45;3.53;;;;;;;;;;4262244;33;20530;-66
2021/06/22 07:21:28;;;;;;;4.37;3.67;;;;;;;;;;4262505;33;20111;-64
2021/06/22 07:23:54;;;;;;;4.57;3.78;;;;;;;;;;4262166;33;20112;-65
2021/06/22 07:26:21;;;;;;;5.22;3.97;;;;;;;;;;4261249;33;20092;-64
2021/06/22 07:28:47;;;;;;;8.77;4.22;;;;;;;;;;4262025;33;20195;-66
2021/06/22 07:31:13;;;;;;;6.90;4.22;;;;;;;;;;4261135;33;20148;-67
2021/06/22 07:33:39;;;;;;;4.62;4.03;;;;;;;;;;4262217;33;20167;-67
2021/06/22 07:36:13;;;;;;;6.75;4.30;;;;;;;;;;4261222;33;20109;-66
2021/06/22 07:38:46;;;;;;;9.90;4.85;;;;;;;;;;4262560;33;20113;-66
2021/06/22 07:41:12;;;;;;;4.60;4.20;;;;;;;;;;4262461;33;20103;-64
2021/06/22 07:43:39;;;;;;;9.25;4.10;;;;;;;;;;4261955;33;20495;-66
2021/06/22 07:46:05;;;;;;;4.85;4.00;;;;;;;;;;4260835;33;20602;-67
2021/06/22 07:48:31;;;;;;;3.90;3.12;;;;;;;;;;4261975;33;20530;-64
2021/06/22 07:50:57;;;;;;;7.20;4.43;;;;;;;;;;4262494;33;20235;-69
2021/06/22 07:53:23;;;;;;;5.60;4.53;;;;;;;;;;4262090;33;20119;-65
2021/06/22 07:55:49;;;;;;;4.97;3.53;;;;;;;;;;4262033;33;20227;-66
2021/06/22 07:58:15;;;;;;;4.55;3.92;;;;;;;;;;4261940;33;20269;-67
2021/06/22 08:00:46;;;;;;;5.35;3.40;;;;;;;;;;4260797;33;20140;-68
2021/06/22 08:03:13;;;;;;;4.90;3.47;;;;;;;;;;4262220;33;20130;-68
2021/06/22 08:05:39;;;;;;;5.53;3.90;;;;;;;;;;4262352;33;20495;-65
2021/06/22 08:08:05;;;;;;;5.95;3.72;;;;;;;;;;4260662;33;20199;-66
2021/06/22 08:10:32;;;;;;;3.50;3.20;;;;;;;;;;4262022;33;20496;-65
2021/06/22 08:12:58;;;;;;;7.93;4.43;;;;;;;;;;4261864;33;20187;-64
2021/06/22 08:15:25;;;;;;;5.47;4.03;;;;;;;;;;4262150;33;20538;-67
2021/06/22 08:17:51;;;;;;;9.50;4.00;;;;;;;;;;4248083;33;20124;-67
2021/06/22 08:20:17;;;;;;;5.25;3.92;;;;;;;;;;4261824;33;20220;-67
2021/06/22 08:22:43;;;;;;;5.37;3.28;;;;;;;;;;4261927;33;20135;-65
2021/06/22 08:25:10;;;;;;;4.72;3.53;;;;;;;;;;4248969;33;20476;-66
2021/06/22 08:27:36;;;;;;;4.97;3.45;;;;;;;;;;4261765;33;20120;-66
2021/06/22 08:30:04;;;;;;;4.53;3.33;;;;;;;;;;4260402;33;20128;-67
2021/06/22 08:32:36;;;;;;;3.83;3.12;;;;;;;;;;4261826;33;20181;-66
2021/06/22 08:35:08;;;;;;;4.72;3.50;;;;;;;;;;4262316;33;20109;-67
2021/06/22 08:37:34;;;;;;;7.47;3.70;;;;;;;;;;4262228;33;20108;-67
2021/06/22 08:40:00;;;;;;;4.00;3.60;;;;;;;;;;4261692;33;20127;-67
2021/06/22 08:42:27;;;;;;;4.70;3.17;;;;;;;;;;4261768;33;20462;-66
2021/06/22 08:44:53;;;;;;;4.82;3.47;;;;;;;;;;4260301;33;20131;-66
2021/06/22 08:47:25;;;;;;;7.57;3.60;;;;;;;;;;4261666;33;20204;-65
2021/06/22 08:49:55;;;;;;;7.57;3.37;;;;;;;;;;4261412;33;20223;-66
2021/06/22 08:52:23;;;;;;;7.75;3.50;;;;;;;;;;4261665;33;20295;-66
2021/06/22 08:54:50;;;;;;;4.82;3.20;;;;;;;;;;4260345;33;20104;-64
2021/06/22 08:57:16;;;;;;;4.57;3.37;;;;;;;;;;4261707;33;20093;-67
2021/06/22 08:59:42;;;;;;;4.37;2.80;;;;;;;;;;4261579;33;20510;-67
2021/06/22 09:02:08;;;;;;;4.75;3.37;;;;;;;;;;4260530;33;20142;-67
2021/06/22 09:04:34;;;;;;;3.60;2.97;;;;;;;;;;4261672;33;20108;-67
2021/06/22 09:07:01;;;;;;;3.17;2.85;;;;;;;;;;4261823;33;20089;-66
2021/06/22 09:09:37;;;;;;;3.87;3.03;;;;;;;;;;4261408;33;20220;-66
2021/06/22 09:12:08;;;;;;;3.53;3.08;;;;;;;;;;4260139;33;20104;-66
2021/06/22 09:14:38;;;;;;;4.00;3.00;;;;;;;;;;4261516;33;20513;-64
2021/06/22 09:17:05;;;;;;;2.87;2.62;;;;;;;;;;4261437;33;20122;-67
2021/06/22 09:19:31;;;;;;;7.22;3.70;;;;;;;;;;4259969;33;20096;-67
2021/06/22 09:22:12;;;;;;;7.32;3.35;;;;;;;;;;4261443;33;20289;-67
2021/06/22 09:24:38;;;;;;;6.28;2.62;;;;;;;;;;4260278;33;20588;-65
2021/06/22 09:27:04;;;;;;;3.60;2.37;;;;;;;;;;4259901;33;20522;-67
2021/06/22 09:29:30;;;;;;;4.15;2.75;;;;;;;;;;4261197;33;20099;-66
2021/06/22 09:31:58;;;;;;;3.33;2.90;;;;;;;;;;4260037;33;20185;-67
2021/06/22 09:34:25;;;;;;;3.90;3.10;;;;;;;;;;4259882;33;20582;-65
2021/06/22 09:37:02;;;;;;;4.18;3.25;;;;;;;;;;4261366;33;20088;-67
2021/06/22 09:39:30;;;;;;;3.90;2.53;;;;;;;;;;4261191;33;20136;-66
2021/06/22 09:41:57;;;;;;;5.15;3.15;;;;;;;;;;4248303;33;20212;-66
2021/06/22 09:44:29;;;;;;;5.87;3.47;;;;;;;;;;4259746;33;20135;-67
2021/06/22 09:46:57;;;;;;;4.68;3.72;;;;;;;;;;4261086;33;20116;-67
2021/06/22 09:49:30;;;;;;;7.50;4.30;;;;;;;;;;4261377;33;20139;-67
2021/06/22 09:52:05;;;;;;;4.07;3.10;;;;;;;;;;4261263;33;20595;-65
2021/06/22 09:54:36;;;;;;;4.10;3.47;;;;;;;;;;4261537;33;20495;-66
2021/06/22 09:57:05;;;;;;;6.35;3.40;;;;;;;;;;4246985;33;20132;-65
2021/06/22 09:59:51;;;;;;;5.37;2.72;;;;;;;;;;4261157;33;20550;-65
2021/06/22 10:02:24;;;;;;;4.90;2.97;;;;;;;;;;4247974;33;20514;-67
2021/06/22 10:04:54;;;;;;;9.23;3.10;;;;;;;;;;4247906;33;20116;-68
2021/06/22 10:07:23;;;;;;;2.85;2.35;;;;;;;;;;4247925;33;20100;-67
2021/06/22 10:09:54;;;;;;;5.62;3.80;;;;;;;;;;4261221;33;20219;-67
2021/06/22 10:12:21;;;;;;;6.97;4.12;;;;;;;;;;4261192;33;20135;-67
2021/06/22 10:14:49;;;;;;;4.22;3.20;;;;;;;;;;4260936;33;20096;-67
2021/06/22 10:17:19;;;;;;;4.62;3.45;;;;;;;;;;4260918;33;20100;-68
2021/06/22 10:19:46;;;;;;;8.32;3.17;;;;;;;;;;4247785;33;20191;-64
2021/06/22 10:22:14;;;;;;;3.60;3.30;;;;;;;;;;4260868;33;20185;-67
2021/06/22 10:24:43;;;;;;;3.78;3.37;;;;;;;;;;4259440;33;20115;-65
2021/06/22 10:27:10;;;;;;;4.78;2.85;;;;;;;;;;4259385;33;20104;-68
2021/06/22 10:29:36;;;;;;;9.38;3.37;;;;;;;;;;4261134;33;20223;-67
2021/06/22 10:32:02;;;;;;;5.35;3.20;;;;;;;;;;4260627;33;20133;-67
2021/06/22 10:34:30;;;;;;;3.30;2.70;;;;;;;;;;4247664;33;20198;-66
2021/06/22 10:37:12;;;;;;;3.53;3.20;;;;;;;;;;4260751;33;20095;-66
2021/06/22 10:39:57;;;;;;;6.20;3.67;;;;;;;;;;4260028;33;20132;-66
2021/06/22 10:42:42;;;;;;;4.18;3.75;;;;;;;;;;4253633;33;20120;-68
2021/06/22 10:45:09;;;;;;;4.18;3.28;;;;;;;;;;4260373;33;20108;-66
2021/06/22 10:47:39;;;;;;;4.12;3.65;;;;;;;;;;4260794;33;20515;-68
2021/06/22 10:50:14;;;;;;;4.65;3.05;;;;;;;;;;4247163;33;20120;-68
2021/06/22 10:52:43;;;;;;;;;;;;;;;;;;4260870;33;20132;-66
2021/06/22 10:55:09;;;;;;;3.72;3.37;;;;;;;;;;4260452;33;20406;-67
2021/06/22 10:57:57;;;;;;;10.75;3.85;;;;;;;;;;4260558;33;20094;-67
2021/06/22 11:00:24;;;;;;;5.05;3.30;;;;;;;;;;4260683;33;20112;-68
2021/06/22 11:02:59;;;;;;;4.43;2.87;;;;;;;;;;4260251;33;20514;-66
2021/06/22 11:05:25;;;;;;;3.45;2.50;;;;;;;;;;4260573;33;20223;-68
2021/06/22 11:08:16;;;;;;;5.20;3.40;;;;;;;;;;4260255;33;20112;-68
2021/06/22 11:10:54;;;;;;;3.50;3.20;;;;;;;;;;4260353;33;20189;-65
2021/06/22 11:13:35;;;;;;;3.53;3.20;;;;;;;;;;4260452;33;20223;-66
2021/06/22 11:16:07;;;;;;;4.47;3.10;;;;;;;;;;4260201;33;20107;-66
2021/06/22 11:18:54;;;;;;;6.70;4.15;;;;;;;;;;4247744;33;20135;-64
2021/06/22 11:21:22;;;;;;;5.43;3.72;;;;;;;;;;4260318;33;20100;-67
2021/06/22 11:24:07;;;;;;;5.05;3.00;;;;;;;;;;4260377;33;20147;-66
2021/06/22 11:26:44;;;;;;;;;;;;;;;;;;4260719;33;20144;-66
2021/06/22 11:29:18;;;;;;;3.22;2.92;;;;;;;;;;4260436;33;19972;-67
2021/06/22 11:31:50;;;;;;;3.33;2.83;;;;;;;;;;4260354;33;20093;-66
2021/06/22 11:34:26;;;;;;;3.83;3.40;;;;;;;;;;4259985;33;20090;-66
2021/06/22 11:36:55;;;;;;;4.43;3.78;;;;;;;;;;4246978;33;20113;-64
2021/06/22 11:39:34;;;;;;;5.87;3.25;;;;;;;;;;4246839;33;20151;-66
2021/06/22 11:42:12;;;;;;;3.45;3.00;;;;;;;;;;4247063;33;20586;-69
2021/06/22 11:44:41;;;;;;;4.22;3.40;;;;;;;;;;4259779;33;20105;-68
2021/06/22 11:47:29;;;;;;;3.40;3.10;;;;;;;;;;4259796;33;20140;-69
2021/06/22 11:49:59;;;;;;;4.12;3.72;;;;;;;;;;4241468;33;20108;-67
2021/06/22 11:52:43;;;;;;;6.62;3.50;;;;;;;;;;4258675;33;20585;-67
2021/06/22 11:55:19;;;;;;;4.12;3.58;;;;;;;;;;4248023;33;20164;-68
2021/06/22 11:57:49;;;;;;;4.90;3.92;;;;;;;;;;4247935;33;20184;-66
2021/06/22 12:00:25;;;;;;;5.97;3.45;;;;;;;;;;4246629;33;20126;-67
2021/06/22 12:02:52;;;;;;;3.75;3.40;;;;;;;;;;4248067;33;20092;-67
2021/06/22 12:05:19;;;;;;;5.12;3.40;;;;;;;;;;4248005;33;20135;-67
2021/06/22 12:07:49;;;;;;;3.90;3.50;;;;;;;;;;4247933;33;20073;-67
2021/06/22 12:10:15;;;;;;;6.75;4.07;;;;;;;;;;4247902;33;20104;-67
2021/06/22 12:12:45;;;;;;;3.90;3.30;;;;;;;;;;4246703;33;20193;-67
2021/06/22 12:15:15;;;;;;;4.35;3.85;;;;;;;;;;4248028;33;20212;-67
2021/06/22 12:17:54;;;;;;;7.80;3.62;;;;;;;;;;4232584;33;20117;-67
2021/06/22 12:20:20;;;;;;;;;;;;;;;;;;4234011;33;20216;-67
2021/06/22 12:23:02;;;;;;;6.87;3.40;;;;;;;;;;4233595;33;19985;-68
2021/06/22 12:25:32;;;;;;;4.50;3.78;;;;;;;;;;4233850;33;20124;-68
2021/06/22 12:28:01;;;;;;;6.93;3.72;;;;;;;;;;4221329;33;20105;-68
2021/06/22 12:30:38;;;;;;;5.18;3.70;;;;;;;;;;4233624;33;20107;-66
2021/06/22 12:33:14;;;;;;;4.00;3.60;;;;;;;;;;4233570;33;20800;-66
2021/06/22 12:35:41;;;;;;;5.80;3.65;;;;;;;;;;4233579;33;20106;-67
2021/06/22 12:38:12;;;;;;;7.05;4.18;;;;;;;;;;4232127;33;20121;-67
2021/06/22 12:40:45;;;;;;;3.58;3.28;;;;;;;;;;4232212;33;20112;-65
2021/06/22 12:43:12;;;;;;;5.18;3.75;;;;;;;;;;4255750;33;20096;-66
2021/06/22 12:45:38;;;;;;;5.78;3.53;;;;;;;;;;4260436;33;20154;-66
2021/06/22 12:48:04;;;;;;;4.95;3.87;;;;;;;;;;4261484;33;20192;-67
2021/06/22 12:50:34;;;;;;;4.85;3.95;;;;;;;;;;4260449;33;20092;-67
2021/06/22 12:53:00;;;;;;;7.25;3.92;;;;;;;;;;4260227;33;20243;-67
2021/06/22 12:55:36;;;;;;;5.10;3.37;;;;;;;;;;4261365;33;20551;-67
2021/06/22 12:58:05;;;;;;;6.12;3.83;;;;;;;;;;4261555;33;20109;-67
2021/06/22 13:00:39;;;;;;;7.00;3.80;;;;;;;;;;4260308;33;20180;-67
2021/06/22 13:03:13;;;;;;;6.37;3.33;;;;;;;;;;4261361;33;20623;-67
2021/06/22 13:05:39;;;;;;;4.93;3.67;;;;;;;;;;4259805;33;20120;-65
2021/06/22 13:08:06;;;;;;;3.87;3.35;;;;;;;;;;4261456;33;20215;-67
2021/06/22 13:10:44;;;;;;;5.25;4.03;;;;;;;;;;4261597;33;20108;-68
2021/06/22 13:13:10;;;;;;;4.55;3.00;;;;;;;;;;4260347;33;20093;-68
2021/06/22 13:15:37;;;;;;;5.50;3.70;;;;;;;;;;4260326;33;20211;-67
2021/06/22 13:18:04;;;;;;;5.40;4.03;;;;;;;;;;4261509;33;20475;-67
2021/06/22 13:20:31;;;;;;;5.30;4.03;;;;;;;;;;4261461;33;20104;-67
2021/06/22 13:23:03;;;;;;;9.73;3.87;;;;;;;;;;4259981;33;20151;-68
2021/06/22 13:25:29;;;;;;;7.93;4.00;;;;;;;;;;4261210;33;20183;-68
2021/06/22 13:28:11;;;;;;;4.12;3.33;;;;;;;;;;4260951;33;20302;-68
2021/06/22 13:30:39;;;;;;;6.32;3.35;;;;;;;;;;4261659;33;20440;-67
2021/06/22 13:33:05;;;;;;;9.55;4.12;;;;;;;;;;4261317;33;20128;-65
2021/06/22 13:35:42;;;;;;;4.93;3.97;;;;;;;;;;4261497;33;20124;-65
2021/06/22 13:38:18;;;;;;;3.65;3.35;;;;;;;;;;4261243;33;20571;-67
2021/06/22 13:40:55;;;;;;;4.72;3.50;;;;;;;;;;4261474;33;20459;-67
2021/06/22 13:43:22;;;;;;;8.95;3.75;;;;;;;;;;4259425;33;20456;-67
2021/06/22 13:45:53;;;;;;;5.45;3.90;;;;;;;;;;4261369;33;20224;-65
2021/06/22 13:48:26;;;;;;;3.75;3.45;;;;;;;;;;4260875;33;20085;-65
2021/06/22 13:50:54;;;;;;;4.43;3.35;;;;;;;;;;4261103;33;20440;-67
2021/06/22 13:53:27;;;;;;;7.60;4.03;;;;;;;;;;4261147;33;20551;-67
2021/06/22 13:55:53;;;;;;;6.28;3.65;;;;;;;;;;4261214;33;20126;-67
2021/06/22 13:58:20;;;;;;;5.22;3.33;;;;;;;;;;4261090;33;20531;-66
2021/06/22 14:00:51;;;;;;;6.22;3.47;;;;;;;;;;4261064;33;20124;-65
2021/06/22 14:03:17;;;;;;;5.78;3.45;;;;;;;;;;4259607;33;20456;-68
2021/06/22 14:05:43;;;;;;;6.65;3.78;;;;;;;;;;4261104;33;20127;-67
2021/06/22 14:08:10;;;;;;;11.27;3.45;;;;;;;;;;4259576;33;20099;-67
2021/06/22 14:10:40;;;;;;;9.07;3.40;;;;;;;;;;4261350;33;20167;-66
2021/06/22 14:13:07;;;;;;;4.25;3.50;;;;;;;;;;4259866;33;20128;-67
2021/06/22 14:15:34;;;;;;;4.93;3.50;;;;;;;;;;4260376;33;20310;-64
2021/06/22 14:18:00;;;;;;;7.72;3.37;;;;;;;;;;4260606;33;20224;-66
2021/06/22 14:20:26;;;;;;;7.25;4.15;;;;;;;;;;4247808;33;20132;-66
2021/06/22 14:22:53;;;;;;;8.00;3.92;;;;;;;;;;4259457;33;20223;-67
2021/06/22 14:25:19;;;;;;;4.10;3.70;;;;;;;;;;4260946;33;20475;-66
2021/06/22 14:27:45;;;;;;;3.83;3.22;;;;;;;;;;4260520;33;20119;-66
2021/06/22 14:30:12;;;;;;;9.35;3.62;;;;;;;;;;4247599;33;20207;-66
2021/06/22 14:32:38;;;;;;;4.90;4.00;;;;;;;;;;4260656;33;20121;-67
2021/06/22 14:35:06;;;;;;;5.20;3.80;;;;;;;;;;4258993;33;20108;-65
2021/06/22 14:37:33;;;;;;;9.82;4.18;;;;;;;;;;4260654;33;20690;-67
2021/06/22 14:39:59;;;;;;;6.55;3.65;;;;;;;;;;4260368;33;20208;-67
2021/06/22 14:42:26;;;;;;;7.10;3.80;;;;;;;;;;4260422;33;20155;-65
2021/06/22 14:44:52;;;;;;;6.43;3.50;;;;;;;;;;4260328;33;20132;-67
2021/06/22 14:47:18;;;;;;;9.25;4.30;;;;;;;;;;4260586;33;20200;-66
2021/06/22 14:49:44;;;;;;;4.55;3.22;;;;;;;;;;4260818;33;20455;-64
2021/06/22 14:52:10;;;;;;;5.37;3.47;;;;;;;;;;4259214;33;20204;-66
2021/06/22 14:54:37;;;;;;;8.60;3.30;;;;;;;;;;4260416;33;20134;-67
2021/06/22 14:57:04;;;;;;;6.22;3.50;;;;;;;;;;4260603;33;20154;-65
2021/06/22 14:59:30;;;;;;;8.15;3.90;;;;;;;;;;4260797;33;20180;-64
2021/06/22 15:01:55;;;;;;;11.35;3.78;;;;;;;;;;4260512;33;20151;-67
2021/06/22 15:04:21;;;;;;;6.30;3.35;;;;;;;;;;4259198;33;20108;-66
2021/06/22 15:06:47;;;;;;;4.00;3.28;;;;;;;;;;4258830;33;20140;-66
2021/06/22 15:09:13;;;;;;;7.10;3.65;;;;;;;;;;4260392;33;20594;-67
2021/06/22 15:11:39;;;;;;;8.68;3.33;;;;;;;;;;4247151;33;20413;-67